Jacinto, Mississippi
Current Conditions -  °F | °C
As of 3:35 PM on Friday 28 Nov 2014 (Local Time) from KCRX Reporting Station
Clear Clear  
Wind Chill: 52°   Ceiling: Unl
Heat Index: 52°   Visibility: NA
Dew Point: 25°   Wind: 10mph
Humidity: 35%   Direction: 180°S
Pressure: 30.22"   Gusts: 16mph
Location:  34.7969°N, 88.6031°W
Report Text: KCRX 282135Z AUTO 18009G14KT CLR 11/M04 A3022 RMK AO2
Loading
Personal Weather Stations






























Interactive Weather Map New forecast layout! Learn more

10-Day Weather Forecast

Advertisements
Track Severe Weather on mobile